createdAt,value
2018-02-04T00:01:18.144Z,92.00
2018-02-04T00:03:46.432Z,92.00
2018-02-04T00:06:14.825Z,92.10
2018-02-04T00:08:43.132Z,92.00
2018-02-04T00:11:11.509Z,92.20
2018-02-04T00:13:39.840Z,92.20
2018-02-04T00:16:08.144Z,92.30
2018-02-04T00:18:36.534Z,91.90
2018-02-04T00:21:04.874Z,91.70
2018-02-04T00:23:34.734Z,91.50
2018-02-04T00:26:03.843Z,91.80
2018-02-04T00:28:32.181Z,91.60
2018-02-04T00:31:00.499Z,91.80
2018-02-04T00:33:29.569Z,91.80
2018-02-04T00:35:58.269Z,91.70
2018-02-04T00:38:26.564Z,91.80
2018-02-04T00:40:54.876Z,92.10
2018-02-04T00:43:23.211Z,92.20
2018-02-04T00:45:51.532Z,92.10
2018-02-04T00:48:20.125Z,92.00
2018-02-04T00:50:48.609Z,92.20
2018-02-04T00:53:16.929Z,92.10
2018-02-04T00:55:45.998Z,91.90
2018-02-04T00:58:14.348Z,91.90
2018-02-04T01:00:42.673Z,91.80
2018-02-04T01:03:11.774Z,91.80
2018-02-04T01:05:40.098Z,91.80
2018-02-04T01:08:08.396Z,91.80
2018-02-04T01:10:37.482Z,91.90
2018-02-04T01:13:05.802Z,91.90
2018-02-04T01:15:34.096Z,91.90
2018-02-04T01:18:02.404Z,92.00
2018-02-04T01:20:30.767Z,92.10
2018-02-04T01:22:59.866Z,92.30
2018-02-04T01:25:28.188Z,92.20
2018-02-04T01:27:56.479Z,92.20
2018-02-04T01:30:24.772Z,92.20
2018-02-04T01:32:53.099Z,92.10
2018-02-04T01:35:22.187Z,92.40
2018-02-04T01:37:50.478Z,92.10
2018-02-04T01:40:19.518Z,91.90
2018-02-04T01:42:47.825Z,91.90
2018-02-04T01:45:16.136Z,91.90
2018-02-04T01:47:44.436Z,92.10
2018-02-04T01:50:13.515Z,92.10
2018-02-04T01:52:41.822Z,92.10
2018-02-04T01:55:10.126Z,92.00
2018-02-04T01:57:38.406Z,92.00
2018-02-04T02:00:06.702Z,92.00
2018-02-04T02:02:35.005Z,92.10
2018-02-04T02:05:03.308Z,92.10
2018-02-04T02:07:32.593Z,92.10
2018-02-04T02:10:00.909Z,92.10
2018-02-04T02:12:29.964Z,91.90
2018-02-04T02:14:58.942Z,92.00
2018-02-04T02:17:27.278Z,91.90
2018-02-04T02:19:56.361Z,92.00
2018-02-04T02:22:24.653Z,92.00
2018-02-04T02:24:53.707Z,91.80
2018-02-04T02:27:22.011Z,91.80
2018-02-04T02:29:50.333Z,91.80
2018-02-04T02:32:18.654Z,91.80
2018-02-04T02:34:46.987Z,91.80
2018-02-04T02:37:16.040Z,91.80
2018-02-04T02:39:44.359Z,91.80
2018-02-04T02:42:13.471Z,91.70
2018-02-04T02:44:42.531Z,91.90
2018-02-04T02:47:10.832Z,91.90
2018-02-04T02:49:39.124Z,91.90
2018-02-04T02:52:08.203Z,91.80
2018-02-04T02:54:36.494Z,91.80
2018-02-04T02:57:04.871Z,91.90
2018-02-04T02:59:33.199Z,91.90
2018-02-04T03:02:01.501Z,92.00
2018-02-04T03:04:29.789Z,92.00
2018-02-04T03:06:58.845Z,91.80
2018-02-04T03:09:28.048Z,91.80
2018-02-04T03:11:57.125Z,91.80
2018-02-04T03:14:25.431Z,91.80
2018-02-04T03:16:54.509Z,91.60
2018-02-04T03:19:22.819Z,91.60
2018-02-04T03:21:51.108Z,91.60
2018-02-04T03:24:19.497Z,91.60
2018-02-04T03:26:47.785Z,91.60
2018-02-04T03:29:16.061Z,91.50
2018-02-04T03:31:44.382Z,91.50
2018-02-04T03:34:12.671Z,91.40
2018-02-04T03:36:40.987Z,91.50
2018-02-04T03:39:09.275Z,91.60
2018-02-04T03:41:37.599Z,91.50
2018-02-04T03:44:05.913Z,91.20
2018-02-04T03:46:34.965Z,91.10
2018-02-04T03:49:03.340Z,91.10
2018-02-04T03:51:31.635Z,91.30
2018-02-04T03:53:59.926Z,91.90
2018-02-04T03:56:28.247Z,92.20
2018-02-04T03:58:57.290Z,92.40
2018-02-04T04:01:25.597Z,92.40
2018-02-04T04:03:53.897Z,92.40
2018-02-04T04:06:22.211Z,92.30
2018-02-04T04:08:50.497Z,92.30
2018-02-04T04:11:18.789Z,92.20
2018-02-04T04:13:47.081Z,92.00
2018-02-04T04:16:15.453Z,92.00
2018-02-04T04:18:43.789Z,92.00
2018-02-04T04:21:12.095Z,91.90
2018-02-04T04:23:40.432Z,91.70
2018-02-04T04:26:08.773Z,91.60
2018-02-04T04:28:37.901Z,91.20
2018-02-04T04:31:06.303Z,91.20
2018-02-04T04:33:34.601Z,91.00
2018-02-04T04:36:03.679Z,90.80
2018-02-04T04:38:31.976Z,90.80
2018-02-04T04:41:00.313Z,90.60
2018-02-04T04:43:28.605Z,90.50
2018-02-04T04:45:56.929Z,90.30
2018-02-04T04:48:25.233Z,90.30
2018-02-04T04:50:53.551Z,90.30
2018-02-04T04:53:21.862Z,90.10
2018-02-04T04:55:50.165Z,90.40
2018-02-04T04:58:19.287Z,89.80
2018-02-04T05:00:47.573Z,89.80
2018-02-04T05:03:15.857Z,89.90
2018-02-04T05:05:44.189Z,89.90
2018-02-04T05:08:12.627Z,90.00
2018-02-04T05:10:40.926Z,89.60
2018-02-04T05:13:09.225Z,90.00
2018-02-04T05:15:37.604Z,90.20
2018-02-04T05:18:06.744Z,90.20
2018-02-04T05:20:36.079Z,90.00
2018-02-04T05:23:04.413Z,90.00
2018-02-04T05:25:32.698Z,89.70
2018-02-04T05:28:01.004Z,89.70
2018-02-04T05:30:29.333Z,89.90
2018-02-04T05:32:57.645Z,90.10
2018-02-04T05:35:25.949Z,89.90
2018-02-04T05:37:54.520Z,89.80
2018-02-04T05:40:22.901Z,89.90
2018-02-04T05:42:51.974Z,90.30
2018-02-04T05:45:20.297Z,90.30
2018-02-04T05:47:49.489Z,90.30
2018-02-04T05:50:18.554Z,90.30
2018-02-04T05:52:46.944Z,90.30
2018-02-04T05:55:15.303Z,90.30
2018-02-04T05:57:43.615Z,90.20
2018-02-04T06:00:11.933Z,90.30
2018-02-04T06:02:40.989Z,90.40
2018-02-04T06:05:09.298Z,90.00
2018-02-04T06:07:37.597Z,90.10
2018-02-04T06:10:06.725Z,90.20
2018-02-04T06:12:35.025Z,90.20
2018-02-04T06:15:03.346Z,90.30
2018-02-04T06:17:32.414Z,90.40
2018-02-04T06:20:00.937Z,90.40
2018-02-04T06:22:29.983Z,90.40
2018-02-04T06:24:58.287Z,90.40
2018-02-04T06:27:27.439Z,90.50
2018-02-04T06:29:55.747Z,90.40
2018-02-04T06:32:24.033Z,90.40
2018-02-04T06:34:52.323Z,90.50
2018-02-04T06:37:20.653Z,90.70
2018-02-04T06:39:49.729Z,90.60
2018-02-04T06:42:18.013Z,90.60
2018-02-04T06:44:46.319Z,90.60
2018-02-04T06:47:14.635Z,90.60
2018-02-04T06:49:43.133Z,90.50
2018-02-04T06:52:11.420Z,90.70
2018-02-04T06:54:39.707Z,90.90
2018-02-04T06:57:08.008Z,90.90
2018-02-04T06:59:37.105Z,90.70
2018-02-04T07:02:05.427Z,90.70
2018-02-04T07:04:33.785Z,90.70
2018-02-04T07:07:02.867Z,90.60
2018-02-04T07:09:32.044Z,90.50
2018-02-04T07:12:00.356Z,90.50
2018-02-04T07:14:29.383Z,90.60
2018-02-04T07:16:57.751Z,90.70
2018-02-04T07:19:26.809Z,90.80
2018-02-04T07:21:55.119Z,90.80
2018-02-04T07:24:23.455Z,90.80
2018-02-04T07:26:51.765Z,91.00
2018-02-04T07:29:20.105Z,90.90
2018-02-04T07:31:48.465Z,90.70
2018-02-04T07:34:17.601Z,91.00
2018-02-04T07:36:45.922Z,91.00
2018-02-04T07:39:14.249Z,91.10
2018-02-04T07:41:42.570Z,91.10
2018-02-04T07:44:10.997Z,91.30
2018-02-04T07:46:40.057Z,91.50
2018-02-04T07:49:08.401Z,91.50
2018-02-04T07:51:36.706Z,91.60
2018-02-04T07:54:05.073Z,91.80
2018-02-04T07:56:34.103Z,92.00
2018-02-04T07:59:03.160Z,92.00
2018-02-04T08:01:31.507Z,92.20
2018-02-04T08:04:00.593Z,92.50
2018-02-04T08:06:29.691Z,92.50
2018-02-04T08:08:58.027Z,92.50
2018-02-04T08:11:26.383Z,92.50
2018-02-04T08:13:54.725Z,92.60
2018-02-04T08:16:23.108Z,92.50
2018-02-04T08:18:51.423Z,92.50
2018-02-04T08:21:20.511Z,92.60
2018-02-04T08:23:48.811Z,92.60
2018-02-04T08:26:17.904Z,92.60
2018-02-04T08:28:47.257Z,92.60
2018-02-04T08:31:15.557Z,92.60
2018-02-04T08:33:44.757Z,93.00
2018-02-04T08:36:13.399Z,92.70
2018-02-04T08:38:41.715Z,92.70
2018-02-04T08:41:10.036Z,92.90
2018-02-04T08:43:39.961Z,92.80
2018-02-04T08:46:09.317Z,92.80
2018-02-04T08:48:37.937Z,92.80
2018-02-04T08:51:06.261Z,92.70
2018-02-04T08:53:35.545Z,92.80
2018-02-04T08:56:04.903Z,92.60
2018-02-04T08:58:33.211Z,92.60
2018-02-04T09:01:01.521Z,92.20
2018-02-04T09:03:30.835Z,91.90
2018-02-04T09:06:00.941Z,92.00
2018-02-04T09:08:29.275Z,92.00
2018-02-04T09:10:57.611Z,91.80
2018-02-04T09:13:26.675Z,91.70
2018-02-04T09:15:54.976Z,91.70
2018-02-04T09:18:23.528Z,91.60
2018-02-04T09:20:51.856Z,91.40
2018-02-04T09:23:20.932Z,91.50
2018-02-04T09:25:49.225Z,91.50
2018-02-04T09:28:19.211Z,91.50
2018-02-04T09:30:47.591Z,91.50
2018-02-04T09:33:15.901Z,91.60
2018-02-04T09:35:44.209Z,91.20
2018-02-04T09:38:14.372Z,90.80
2018-02-04T09:40:42.734Z,90.80
2018-02-04T09:43:11.048Z,90.80
2018-02-04T09:45:39.371Z,90.90
2018-02-04T09:48:07.669Z,90.70
2018-02-04T09:50:36.718Z,90.90
2018-02-04T09:53:05.014Z,90.90
2018-02-04T09:55:33.307Z,91.10
2018-02-04T09:58:02.206Z,91.40
2018-02-04T10:00:30.532Z,91.30
2018-02-04T10:02:58.832Z,91.40
2018-02-04T10:05:27.205Z,91.30
2018-02-04T10:07:55.525Z,91.20
2018-02-04T10:10:24.839Z,89.50
2018-02-04T10:12:54.921Z,89.40
2018-02-04T10:15:23.267Z,87.80
2018-02-04T10:17:51.578Z,87.10
2018-02-04T10:20:19.882Z,86.70
2018-02-04T10:22:48.233Z,86.30
2018-02-04T10:25:16.622Z,86.10
2018-02-04T10:27:44.940Z,85.20
2018-02-04T10:30:13.300Z,84.60
2018-02-04T10:32:41.693Z,84.10
2018-02-04T10:35:09.990Z,82.10
2018-02-04T10:37:39.115Z,81.30
2018-02-04T10:40:08.387Z,82.60
2018-02-04T10:42:38.042Z,82.50
2018-02-04T10:45:07.818Z,80.80
2018-02-04T10:47:36.189Z,80.80
2018-02-04T10:50:04.499Z,79.40
2018-02-04T10:52:32.826Z,78.80
2018-02-04T10:55:01.164Z,79.80
2018-02-04T10:57:29.469Z,80.30
2018-02-04T10:59:57.788Z,79.20
2018-02-04T11:02:26.090Z,79.70
2018-02-04T11:04:54.386Z,79.90
2018-02-04T11:07:22.919Z,80.40
2018-02-04T11:09:51.224Z,80.40
2018-02-04T11:12:20.246Z,79.10
2018-02-04T11:14:48.570Z,79.30
2018-02-04T11:17:16.886Z,80.40
2018-02-04T11:19:45.206Z,80.50
2018-02-04T11:22:14.330Z,80.10
2018-02-04T11:24:42.729Z,80.10
2018-02-04T11:27:11.042Z,79.40
2018-02-04T11:29:39.361Z,79.50
2018-02-04T11:32:20.992Z,79.90
2018-02-04T11:34:49.290Z,79.90
2018-02-04T11:37:17.632Z,80.00
2018-02-04T11:39:46.030Z,80.00
2018-02-04T11:42:14.322Z,80.30
2018-02-04T11:44:42.665Z,80.20
2018-02-04T11:47:12.099Z,79.80
2018-02-04T11:49:41.020Z,79.80
2018-02-04T11:52:09.345Z,80.10
2018-02-04T11:54:38.411Z,80.70
2018-02-04T11:57:06.716Z,80.70
2018-02-04T11:59:36.418Z,79.50
2018-02-04T12:02:04.920Z,79.50
2018-02-04T12:04:34.002Z,79.20
2018-02-04T12:07:02.363Z,79.00
2018-02-04T12:09:30.714Z,78.90
2018-02-04T12:11:59.028Z,78.40
2018-02-04T12:14:27.432Z,78.70
2018-02-04T12:16:55.734Z,78.60
2018-02-04T12:19:24.843Z,77.80
2018-02-04T12:21:54.417Z,77.80
2018-02-04T12:24:22.988Z,78.50
2018-02-04T12:26:52.102Z,78.60
2018-02-04T12:29:20.431Z,78.30
2018-02-04T12:31:48.809Z,77.70
2018-02-04T12:34:17.908Z,78.20
2018-02-04T12:36:46.223Z,78.20
2018-02-04T12:39:14.511Z,78.60
2018-02-04T12:41:43.088Z,78.00
2018-02-04T12:44:11.427Z,76.60
2018-02-04T12:46:40.507Z,76.30
2018-02-04T12:49:08.824Z,76.20
2018-02-04T12:51:38.118Z,75.80
2018-02-04T12:54:06.433Z,75.80
2018-02-04T12:56:35.014Z,76.30
2018-02-04T12:59:03.343Z,75.00
2018-02-04T13:01:31.700Z,73.30
2018-02-04T13:04:00.026Z,72.60
2018-02-04T13:06:28.348Z,72.50
2018-02-04T13:08:56.663Z,71.20
2018-02-04T13:11:24.985Z,70.30
2018-02-04T13:13:54.064Z,69.40
2018-02-04T13:16:22.368Z,69.40
2018-02-04T13:18:51.432Z,71.40
2018-02-04T13:21:19.710Z,71.50
2018-02-04T13:23:48.025Z,71.60
2018-02-04T13:26:17.107Z,72.60
2018-02-04T13:28:46.172Z,72.30
2018-02-04T13:31:15.118Z,72.20
2018-02-04T13:33:44.318Z,71.90
2018-02-04T13:36:12.588Z,71.80
2018-02-04T13:38:40.890Z,71.70
2018-02-04T13:41:10.048Z,72.70
2018-02-04T13:43:38.349Z,72.80
2018-02-04T13:46:06.712Z,73.90
2018-02-04T13:48:35.166Z,74.90
2018-02-04T13:51:03.524Z,75.40
2018-02-04T13:53:32.587Z,76.50
2018-02-04T13:56:00.904Z,76.60
2018-02-04T13:58:29.958Z,78.10
2018-02-04T14:00:58.264Z,78.10
2018-02-04T14:03:26.555Z,78.60
2018-02-04T14:05:54.856Z,78.90
2018-02-04T14:08:23.182Z,79.10
2018-02-04T14:10:51.492Z,79.50
2018-02-04T14:13:19.813Z,80.10
2018-02-04T14:15:48.122Z,80.30
2018-02-04T14:18:16.419Z,80.70
2018-02-04T14:20:44.762Z,81.10
2018-02-04T14:23:13.062Z,81.70
2018-02-04T14:25:41.434Z,81.90
2018-02-04T14:28:10.508Z,82.70
2018-02-04T14:30:39.557Z,83.10
2018-02-04T14:33:07.872Z,83.20
2018-02-04T14:35:36.202Z,83.60
2018-02-04T14:38:04.491Z,83.90
2018-02-04T14:40:32.786Z,84.80
2018-02-04T14:43:01.122Z,86.40
2018-02-04T14:45:30.689Z,88.70
2018-02-04T14:47:59.852Z,88.80
2018-02-04T14:50:28.168Z,90.10
2018-02-04T14:52:56.761Z,90.50
2018-02-04T14:55:26.705Z,90.70
2018-02-04T14:57:55.874Z,90.90
2018-02-04T15:00:24.191Z,90.90
2018-02-04T15:02:53.260Z,91.70
2018-02-04T15:05:21.560Z,91.70
2018-02-04T15:07:49.864Z,92.10
2018-02-04T15:10:18.948Z,92.50
2018-02-04T15:12:47.258Z,92.50
2018-02-04T15:15:15.841Z,92.90
2018-02-04T15:17:44.137Z,93.00
2018-02-04T15:20:12.658Z,93.00
2018-02-04T15:22:41.020Z,93.10
2018-02-04T15:25:09.384Z,93.40
2018-02-04T15:27:37.700Z,93.50
2018-02-04T15:30:06.248Z,93.70
2018-02-04T15:32:34.550Z,93.70
2018-02-04T15:35:02.874Z,93.70
2018-02-04T15:37:31.174Z,93.80
2018-02-04T15:40:00.480Z,94.00
2018-02-04T15:42:29.550Z,93.90
2018-02-04T15:44:57.879Z,93.90
2018-02-04T15:47:26.182Z,94.10
2018-02-04T15:49:54.496Z,94.30
2018-02-04T15:52:22.805Z,94.30
2018-02-04T15:54:51.964Z,94.50
2018-02-04T15:57:20.267Z,94.40
2018-02-04T15:59:48.692Z,94.20
2018-02-04T16:02:17.008Z,94.30
2018-02-04T16:04:45.388Z,94.50
2018-02-04T16:07:13.694Z,94.50
2018-02-04T16:09:42.102Z,94.70
2018-02-04T16:12:11.158Z,94.50
2018-02-04T16:14:40.230Z,94.60
2018-02-04T16:17:08.528Z,94.60
2018-02-04T16:19:36.874Z,94.70
2018-02-04T16:22:05.200Z,94.70
2018-02-04T16:24:33.592Z,94.70
2018-02-04T16:27:01.906Z,94.50
2018-02-04T16:29:30.226Z,94.40
2018-02-04T16:31:58.606Z,94.30
2018-02-04T16:34:26.924Z,94.40
2018-02-04T16:36:55.228Z,94.40
2018-02-04T16:39:24.020Z,94.50
2018-02-04T16:41:52.327Z,94.50
2018-02-04T16:44:21.458Z,94.60
2018-02-04T16:46:49.821Z,94.60
2018-02-04T16:49:19.045Z,94.80
2018-02-04T16:51:47.466Z,94.90
2018-02-04T16:54:15.886Z,94.90
2018-02-04T16:56:44.294Z,94.80
2018-02-04T16:59:12.614Z,94.60
2018-02-04T17:01:41.010Z,94.40
2018-02-04T17:04:10.131Z,94.10
2018-02-04T17:06:39.313Z,94.00
2018-02-04T17:09:08.455Z,93.90
2018-02-04T17:11:36.791Z,93.90
2018-02-04T17:14:05.935Z,93.70
2018-02-04T17:16:34.270Z,93.80
2018-02-04T17:19:02.586Z,93.70
2018-02-04T17:21:31.047Z,93.60
2018-02-04T17:24:01.235Z,93.30
2018-02-04T17:26:29.821Z,93.30
2018-02-04T17:28:58.977Z,93.30
2018-02-04T17:31:28.411Z,93.10
2018-02-04T17:33:56.847Z,93.10
2018-02-04T17:36:25.969Z,92.90
2018-02-04T17:38:55.936Z,92.90
2018-02-04T17:41:24.446Z,93.00
2018-02-04T17:43:52.838Z,93.00
2018-02-04T17:46:21.344Z,93.10
2018-02-04T17:48:50.524Z,92.90
2018-02-04T17:51:19.855Z,92.90
2018-02-04T17:53:50.274Z,92.90
2018-02-04T17:56:19.414Z,92.80
2018-02-04T17:58:48.009Z,92.80
2018-02-04T18:01:17.895Z,92.80
2018-02-04T18:03:47.010Z,92.60
2018-02-04T18:06:16.171Z,92.60
2018-02-04T18:08:44.753Z,92.30
2018-02-04T18:11:13.109Z,92.30
2018-02-04T18:13:42.095Z,92.20
2018-02-04T18:16:10.391Z,92.30
2018-02-04T18:18:38.965Z,92.40
2018-02-04T18:21:07.273Z,92.40
2018-02-04T18:23:35.633Z,92.40
2018-02-04T18:26:03.973Z,92.20
2018-02-04T18:28:33.094Z,92.10
2018-02-04T18:31:02.349Z,92.00
2018-02-04T18:33:30.681Z,91.80
2018-02-04T18:35:59.113Z,91.80
2018-02-04T18:38:28.788Z,91.60
2018-02-04T18:40:57.907Z,91.70
2018-02-04T18:43:26.889Z,91.50
2018-02-04T18:45:55.471Z,91.50
2018-02-04T18:48:23.779Z,91.40
2018-02-04T18:50:52.104Z,91.30
2018-02-04T18:53:21.201Z,91.40
2018-02-04T18:55:50.429Z,91.40
2018-02-04T18:58:18.864Z,91.40
2018-02-04T19:00:48.103Z,91.40
2018-02-04T19:03:18.105Z,91.40
2018-02-04T19:05:46.427Z,91.60
2018-02-04T19:08:15.621Z,91.80
2018-02-04T19:10:43.931Z,91.80
2018-02-04T19:13:12.297Z,91.60
2018-02-04T19:15:40.605Z,91.90
2018-02-04T19:18:08.948Z,91.90
2018-02-04T19:20:37.477Z,91.80
2018-02-04T19:23:05.856Z,91.70
2018-02-04T19:25:34.283Z,91.70
2018-02-04T19:28:03.381Z,91.70
2018-02-04T19:30:32.488Z,91.90
2018-02-04T19:33:01.582Z,92.10
2018-02-04T19:35:31.148Z,92.20
2018-02-04T19:38:00.940Z,92.20
2018-02-04T19:40:29.243Z,92.20
2018-02-04T19:42:58.202Z,92.20
2018-02-04T19:45:26.507Z,91.80
2018-02-04T19:47:55.832Z,91.80
2018-02-04T19:50:25.002Z,91.60
2018-02-04T19:52:53.326Z,91.60
2018-02-04T19:55:21.859Z,91.60
2018-02-04T19:57:50.187Z,91.70
2018-02-04T20:00:18.528Z,91.70
2018-02-04T20:02:47.603Z,91.50
2018-02-04T20:05:16.726Z,91.60
2018-02-04T20:07:45.834Z,91.50
2018-02-04T20:10:14.150Z,91.50
2018-02-04T20:12:42.592Z,91.30
2018-02-04T20:15:10.941Z,91.30
2018-02-04T20:17:39.270Z,91.50
2018-02-04T20:20:07.593Z,91.20
2018-02-04T20:22:35.942Z,91.20
2018-02-04T20:25:04.469Z,91.20
2018-02-04T20:27:33.690Z,91.30
2018-02-04T20:30:02.785Z,91.30
2018-02-04T20:32:49.699Z,91.40
2018-02-04T20:35:18.791Z,91.40
2018-02-04T20:37:47.187Z,91.40
2018-02-04T20:40:16.328Z,91.70
2018-02-04T20:42:45.379Z,91.70
2018-02-04T20:45:14.925Z,91.70
2018-02-04T20:47:43.244Z,91.70
2018-02-04T20:50:11.608Z,91.80
2018-02-04T20:52:39.945Z,91.80
2018-02-04T20:55:09.023Z,92.20
2018-02-04T20:57:37.938Z,92.20
2018-02-04T21:00:07.018Z,92.30
2018-02-04T21:02:36.129Z,92.40
2018-02-04T21:05:06.132Z,92.40
2018-02-04T21:07:34.483Z,92.40
2018-02-04T21:10:02.801Z,92.50
2018-02-04T21:12:31.983Z,92.50
2018-02-04T21:15:00.397Z,92.60
2018-02-04T21:17:29.496Z,92.80
2018-02-04T21:19:58.612Z,92.90
2018-02-04T21:22:28.489Z,92.80
2018-02-04T21:24:56.883Z,92.80
2018-02-04T21:27:25.229Z,92.90
2018-02-04T21:29:53.628Z,93.10
2018-02-04T21:32:21.911Z,93.00
2018-02-04T21:34:51.575Z,93.00
2018-02-04T21:37:19.891Z,93.00
2018-02-04T21:39:48.331Z,92.90
2018-02-04T21:42:17.823Z,93.10
2018-02-04T21:44:47.184Z,93.10
2018-02-04T21:47:15.703Z,93.10
2018-02-04T21:49:44.040Z,93.10
2018-02-04T21:52:13.381Z,93.20
2018-02-04T21:54:42.562Z,93.30
2018-02-04T21:57:10.858Z,93.30
2018-02-04T21:59:40.140Z,93.20
2018-02-04T22:02:08.461Z,93.20
2018-02-04T22:04:36.798Z,93.10
2018-02-04T22:07:05.805Z,93.10
2018-02-04T22:09:34.151Z,93.20
2018-02-04T22:12:03.443Z,93.20
2018-02-04T22:14:32.834Z,93.20
2018-02-04T22:17:01.921Z,93.20
2018-02-04T22:19:32.264Z,93.10
2018-02-04T22:22:01.430Z,93.40
2018-02-04T22:24:29.801Z,93.40
2018-02-04T22:26:58.141Z,93.40
2018-02-04T22:29:26.710Z,93.30
2018-02-04T22:31:55.029Z,93.10
2018-02-04T22:34:24.359Z,93.10
2018-02-04T22:36:52.706Z,93.10
2018-02-04T22:39:21.014Z,93.10
2018-02-04T22:41:49.771Z,93.10
2018-02-04T22:44:18.322Z,93.20
2018-02-04T22:46:47.559Z,93.10
2018-02-04T22:49:15.874Z,93.10
2018-02-04T22:51:44.920Z,93.10
2018-02-04T22:54:13.323Z,93.10
2018-02-04T22:56:41.668Z,93.10
2018-02-04T22:59:10.802Z,93.20
2018-02-04T23:01:39.173Z,93.10
2018-02-04T23:04:07.511Z,93.00
2018-02-04T23:06:35.830Z,93.00
2018-02-04T23:09:04.123Z,93.00
2018-02-04T23:11:32.490Z,93.20
2018-02-04T23:14:00.799Z,93.10
2018-02-04T23:16:29.892Z,93.10
2018-02-04T23:18:58.265Z,93.10
2018-02-04T23:21:26.604Z,93.10
2018-02-04T23:23:54.916Z,93.10
2018-02-04T23:26:24.230Z,93.10
2018-02-04T23:28:52.714Z,93.00
2018-02-04T23:31:21.931Z,92.90
2018-02-04T23:33:50.257Z,92.80
2018-02-04T23:36:18.588Z,92.90
2018-02-04T23:38:46.934Z,92.90
2018-02-04T23:41:15.348Z,93.00
2018-02-04T23:43:43.710Z,92.80
2018-02-04T23:46:12.031Z,92.80
2018-02-04T23:48:40.366Z,92.80
2018-02-04T23:51:08.693Z,92.80
2018-02-04T23:53:38.045Z,93.00
2018-02-04T23:56:07.012Z,93.00
2018-02-04T23:58:35.357Z,92.90
